Архив погоды в Красной Поляне

Метеограмма Красная Поляна
Четверг, 26 Апреля
Время местн. Темп Ветер Видим Явления Облачность нижн/средн/верх Атм. давл. Влжн Точка росы ВНГО R Сост. почвы Tg s
Напр Скр Прв ур.ст ур.м изм
12:00 +22.8° Ю-З 4 - 20 км - ясно 714 761 -0.8 25% +1.8° более 2.5 км - - - -
09:00 +15.4° Ю,Ю-З 1 - 20 км - ясно 714 763 -0.6 51% +5.3° более 2.5 км - - - -
06:00 +7.4° В 1 - 20 км - ясно 715 765 +0.2 77% +3.6° более 2.5 км 0 Влажная (без луж) +4° -
03:00 +7.8° штиль 0 - 20 км - ясно 715 765 +0.2 75% +3.6° более 2.5 км - - - -
00:00 +10.7° С 2 - 20 км - ясно 715 765 -0.1 61% +3.5° более 2.5 км - - - -
Среда, 25 Апреля
Время местн. Темп Ветер Видим Явления Облачность нижн/средн/верх Атм. давл. Влжн Точка росы ВНГО R Сост. почвы Tg s
Напр Скр Прв ур.ст ур.м изм
21:00 +13.1° С 2 - 20 км - ясно 715 764 +1.1 53% +3.7° более 2.5 км - - - -
18:00 +18.6° З,Ю-З 1 - 20 км - ясно 714 762 -0.3 28% -0.3° более 2.5 км 0 - - -
15:00 +21.2° Ю-З 3 - 20 км - незначительная облачность 714 762 -0.9 26% +0.9° более 2.5 км - - - -
12:00 +19° З,Ю-З 3 - 20 км - переменная облачность 715 763 -0.6 32% +1.9° - - - - -
09:00 +10.2° Ю-З 1 - 20 км - переменная облачность 715 765 -0.2 69% +4.8° более 2.5 км - - - -
06:00 +4.7° штиль 0 - 20 км - ясно 716 767 +0.3 93% +3.7° более 2.5 км - Влажная (без луж) - -
03:00 +5.9° С-В 2 - 20 км - ясно 715 766 -0.2 90% +4.4° более 2.5 км - - - -
00:00 +7.3° штиль 0 - 19 км - ясно 716 766 0 83% +4.6° более 2.5 км - - - -
Вторник, 24 Апреля
Время местн. Темп Ветер Видим Явления Облачность нижн/средн/верх Атм. давл. Влжн Точка росы ВНГО R Сост. почвы Tg s
Напр Скр Прв ур.ст ур.м изм
21:00 +10.3° С,С-В 1 - 20 км - ясно 716 766 +0.6 67% +4.4° более 2.5 км - - - -
18:00 +14.4° З 1 - 20 км - незначительная облачность 715 764 0 47% +3.2° 1.5 км - - - -
15:00 +16.5° Ю-З 4 - 20 км - переменная облачность 715 764 +0.2 44% +4.2° 1.5 км - - - -
12:00 +17° З,Ю-З 3 - 20 км - переменная облачность 715 764 -0.2 38% +2.6° 1.5 км - - - -
09:00 +12.1° Ю-З 1 - 20 км - переменная облачность 715 765 +0.6 55% +3.3° 1.5 км - - - -
06:00 +5.2° В 1 - 20 км - ясно 714 765 +0.6 91% +3.9° более 2.5 км - Влажная (без луж) - -
03:00 +6.9° С-В 1 - 20 км - облачно с прояснениями 714 764 +0.2 89% +5.2° более 2.5 км - - - -
00:00 +7.8° штиль 0 - 20 км - переменная облачность 714 764 +0.4 84% +5.3° - - - - -
Понедельник, 23 Апреля
Время местн. Темп Ветер Видим Явления Облачность нижн/средн/верх Атм. давл. Влжн Точка росы ВНГО R Сост. почвы Tg s
Напр Скр Прв ур.ст ур.м изм
21:00 +8.9° С 1 - 20 км - переменная облачность 713 763 +1.1 77% +5.1° - - - - -
18:00 +12.4° З 2 - 20 км - переменная облачность 712 762 +0.5 68% +6.7° 2 км - - - -
15:00 +14.2° З 2 - 20 км - облачно 712 761 -0.3 55% +5.3° 1.5 км - - - -
12:00 +14.9° Ю-З 3 - 19 км - облачно 712 761 -0.5 48% +4° 1.5 км - - - -
09:00 +10.3° штиль 0 - 20 км - облачно 713 762 +0.2 76% +6.3° 1.5 км - - - -